AirNav   Air Wisconsin pilot careers
 
 1579 users online  

1KS Linn County Airport
Pleasanton, Kansas, USA

GOING TO PLEASANTON?


FAA INFORMATION EFFECTIVE 19 JULY 2018

Location

FAA Identifier: 1KS
Lat/Long: 38-10-24.3600N / 094-41-25.1700W
38-10.406000N / 094-41.419500W
38.1734333 / -94.6903250
(estimated)
Elevation: 860 ft. / 262 m (estimated)
From city: 1 mile NW of PLEASANTON, KS
Time zone: UTC -5 (UTC -6 during Standard Time)
Zip code: 66767

Airport Operations

Airport use: Open to the public
Activation date: 11/2014
Control tower: no
ARTCC: KANSAS CITY CENTER
FSS: WICHITA FLIGHT SERVICE STATION
NOTAMs facility: ICT (NOTAM-D service available)
Attendance: UNATNDD
Wind indicator: yes
Segmented circle: no

Airport Communications

CTAF/UNICOM: 122.8

Nearby radio navigation aids

VOR radial/distance  VOR name  Freq  Var
BUMr231/11.2BUTLER VORTAC115.9007E

Airport Services

Parking: tiedowns

Runway Information

Runway 18/36

Dimensions: 3000 x 60 ft. / 914 x 18 m
Surface: asphalt, in excellent condition
RUNWAY 18  RUNWAY 36
Latitude: 38-10.653333N38-10.158667N
Longitude: 094-41.420667W094-41.418333W
Elevation: 860.0 ft.830.0 ft.
Traffic pattern: rightleft
Markings: basic, in good conditionbasic, in good condition
Obstructions: 25 ft. tree, 1130 ft. from runway, 138 ft. left of centerline, 37:1 slope to clearnone

Airport Ownership and Management from official FAA records

Ownership: Publicly-owned
Owner: LINN COUNTY
306 MAIN STREET
MOUND CITY, KS 66056
Phone 913-795-2274
Manager: DENNIS ARNOLD
306 MAIN STREET
MOUND CITY, KS 66056
Phone 913-795-2274

Additional Remarks

WILDLIFE ON AND INVOF RUNWAY

Instrument Procedures

There are no published instrument procedures at 1KS.

Some nearby airports with instrument procedures:

KBUM - Butler Memorial Airport (18 nm NE)
KFSK - Fort Scott Municipal Airport (23 nm S)
K81 - Miami County Airport (25 nm NW)
KNVD - Nevada Municipal Airport (27 nm SE)
KLRY - Lawrence Smith Memorial Airport (31 nm NE)
 
Loc | Ops | Rwys | IFR | FBO | Links
Com | Nav | Svcs | Stats | Notes


 
Aerial photo
WARNING: Photo may not be current or correct
Aerial photo of 1KS (Linn County Airport)
Photo taken 19-Aug-2015
looking south.

Do you have a better or more recent aerial photo of Linn County Airport that you would like to share? If so, please send us your photo.

 
Airport distance calculator
Flying to Linn County Airport? Find the distance to fly.

From to 1KS

Sunrise and sunset
Times for 19-Jul-2018
 Local
(UTC-5)
 Zulu
(UTC)
Morning civil twilight05:4110:41
Sunrise06:1211:12
Sunset20:3801:38
Evening civil twilight21:0902:09

Current date and time
Zulu (UTC)  19-Jul-2018 17:20:30
Local (UTC-5)  19-Jul-2018 12:20:30
 
METAR
KLRY 
31nm NE 
191655Z AUTO 20007KT 10SM SCT023 32/25 A2989 RMK AO2 LTG DSNT NE
KOWI 
34nm NW 
191655Z AUTO 23007KT 8SM CLR 34/22 A2984 RMK AO2 PWINO
KK88 
38nm SW 
191655Z AUTO 00000KT 10SM CLR 32/20 A2988 RMK AO1 T03200200
KIXD 
40nm N 
191653Z 21009KT 10SM CLR 34/24 A2985 RMK AO2 SLP095 T03390239
KOJC 
41nm N 
191653Z 23006KT 10SM FEW040 32/23 A2985 RMK AO2 SLP094 T03220233
KPTS 
43nm S 
191655Z AUTO 20003KT 10SM CLR 33/24 A2987 RMK AO2 T03300243
KCNU 
48nm SW 
191652Z AUTO 22006KT 10SM CLR 32/24 A2987 RMK AO2 SLP102 T03220239
KGLY 
49nm E 
191615Z AUTO 22005KT 7SM VCTS CLR 29/24 A2988 RMK AO2 LTG DSNT N-E
KLXT 
50nm N 
191653Z AUTO 24007KT 10SM FEW033 FEW045 32/24 A2986 RMK AO2 LTG DSNT NE SLP102 T03170244
TAF
KIXD 
40nm N 
191120Z 1912/2012 17007KT P6SM SCT050 SCT100 FM191300 19007KT P6SM VCSH SCT050 FM191500 17006KT P6SM SCT070 FM192100 27006KT P6SM VCTS SCT060CB SCT150 FM200000 24005KT P6SM SCT100
KCNU 
48nm SW 
191121Z 1912/2012 17006KT P6SM FEW200 TEMPO 1912/1913 4SM BR FM200200 14005KT P6SM SCT250
NOTAMs
Click for the latest NOTAMs
NOTAMs are issued by the DoD/FAA and will open in a separate window not controlled by AirNav.

 

 
 

Would you like to see your business listed on this page?

 If your business provides an interesting product or service to pilots, flight crews, aircraft, or users of the Linn County Airport, you should consider listing it here.  To start the listing process, click on the button below
 
Add a business
 

Other Pages about Linn County Airport

Update a link
 
Copyright © AirNav, LLC. All rights reserved. Privacy Policy  Contact